Time;durP1;ratioP1;P1;durP2;ratioP2;P2;SDS_P1;SDS_P2;PMS_P1;PMS_P2;Temp;Humidity;BMP_temperature;BMP_pressure;BME280_temperature;BME280_humidity;BME280_pressure;Samples;Min_cycle;Max_cycle;Signal;HPM_P1;HPM_P2
2023/08/18 00:00:56;;;;;;;12.40;11.27;;;23.00;35.70;;;;;;5137673;27;20616;-57
2023/08/18 00:03:21;;;;;;;11.37;10.50;;;23.00;35.80;;;;;;5137817;27;20181;-56
2023/08/18 00:05:47;;;;;;;10.77;10.07;;;23.00;35.70;;;;;;5137963;27;20185;-57
2023/08/18 00:08:13;;;;;;;12.00;11.30;;;23.10;35.70;;;;;;5137719;27;20187;-59
2023/08/18 00:10:38;;;;;;;12.00;11.20;;;23.10;35.50;;;;;;5137314;27;20180;-59
2023/08/18 00:13:04;;;;;;;10.33;9.83;;;23.10;35.50;;;;;;5155876;27;20559;-59
2023/08/18 00:15:29;;;;;;;12.07;11.20;;;23.10;35.40;;;;;;5137200;27;20177;-59
2023/08/18 00:17:55;;;;;;;12.50;11.60;;;23.10;35.40;;;;;;5137166;27;20194;-57
2023/08/18 00:20:21;;;;;;;11.70;11.00;;;23.10;35.40;;;;;;5137176;27;20226;-56
2023/08/18 00:22:46;;;;;;;11.50;10.57;;;23.10;35.00;;;;;;5137224;27;20183;-56
2023/08/18 00:25:12;;;;;;;9.80;9.30;;;23.00;34.60;;;;;;5137195;27;20176;-56
2023/08/18 00:27:38;;;;;;;9.93;9.33;;;23.00;34.50;;;;;;5136920;27;20180;-56
2023/08/18 00:30:05;;;;;;;9.97;9.37;;;23.00;34.30;;;;;;5136936;27;20523;-57
2023/08/18 00:32:30;;;;;;;10.83;10.13;;;23.00;34.20;;;;;;5136772;27;20204;-56
2023/08/18 00:34:56;;;;;;;11.50;10.60;;;23.00;34.70;;;;;;5137006;27;20420;-57
2023/08/18 00:37:21;;;;;;;10.80;10.20;;;23.00;34.60;;;;;;5136671;27;20176;-56
2023/08/18 00:39:47;;;;;;;10.80;10.20;;;22.90;34.40;;;;;;5135976;27;20184;-57
2023/08/18 00:42:13;;;;;;;11.67;10.97;;;22.90;34.50;;;;;;5136619;27;20192;-57
2023/08/18 00:44:38;;;;;;;11.47;10.60;;;22.90;34.40;;;;;;5136672;27;20222;-58
2023/08/18 00:47:04;;;;;;;11.93;10.47;;;22.90;34.50;;;;;;5119530;27;20271;-56
2023/08/18 00:49:30;;;;;;;11.60;10.90;;;22.90;34.50;;;;;;5136270;27;20188;-58
2023/08/18 00:51:56;;;;;;;11.40;10.80;;;22.80;34.50;;;;;;5155173;27;20204;-58
2023/08/18 00:54:22;;;;;;;13.10;12.10;;;22.80;34.30;;;;;;5136480;27;20454;-59
2023/08/18 00:56:49;;;;;;;11.37;10.77;;;22.80;34.70;;;;;;5136435;27;20410;-58
2023/08/18 00:59:14;;;;;;;10.70;10.10;;;22.80;34.70;;;;;;5136218;27;20410;-58
2023/08/18 01:01:42;;;;;;;11.30;10.50;;;22.80;34.70;;;;;;5134745;27;20410;-58
2023/08/18 01:04:07;;;;;;;11.67;11.07;;;22.80;34.60;;;;;;5135354;27;20251;-58
2023/08/18 01:06:33;;;;;;;11.07;10.47;;;22.70;35.20;;;;;;5135482;27;20849;-58
2023/08/18 01:08:59;;;;;;;10.30;9.60;;;22.70;34.60;;;;;;5135574;27;20199;-59
2023/08/18 01:11:45;;;;;;;10.73;10.03;;;22.70;34.50;;;;;;5135392;27;20198;-58
2023/08/18 01:14:37;;;;;;;10.33;9.83;;;22.60;34.80;;;;;;5135490;27;20181;-58
2023/08/18 01:17:20;;;;;;;11.23;10.53;;;22.70;35.10;;;;;;5135270;27;20884;-58
2023/08/18 01:19:47;;;;;;;10.20;9.67;;;22.60;35.30;;;;;;5135116;27;20409;-56
2023/08/18 01:22:16;;;;;;;10.57;9.77;;;22.60;35.20;;;;;;5135150;27;20525;-59
2023/08/18 01:24:42;;;;;;;10.80;10.20;;;22.40;36.00;;;;;;5135018;27;20402;-56
2023/08/18 01:27:08;;;;;;;11.57;10.87;;;22.30;36.50;;;;;;5135071;27;20902;-55
2023/08/18 01:29:34;;;;;;;11.00;10.20;;;22.20;37.10;;;;;;5117674;27;20181;-55
2023/08/18 01:32:01;;;;;;;10.87;10.17;;;22.10;37.30;;;;;;5134952;27;20686;-54
2023/08/18 01:34:29;;;;;;;10.90;10.30;;;22.00;37.60;;;;;;5153175;27;20402;-56
2023/08/18 01:36:57;;;;;;;10.80;10.20;;;21.80;38.00;;;;;;5135111;27;20497;-56
2023/08/18 01:39:24;;;;;;;11.10;10.50;;;21.80;38.30;;;;;;5134586;27;20409;-57
2023/08/18 01:41:51;;;;;;;11.33;10.73;;;21.60;38.50;;;;;;5135082;27;20781;-56
2023/08/18 01:44:18;;;;;;;10.83;9.83;;;21.60;38.70;;;;;;5134504;27;20493;-56
2023/08/18 01:46:45;;;;;;;11.33;10.63;;;21.60;38.90;;;;;;5134836;27;20421;-55
2023/08/18 01:49:11;;;;;;;11.10;10.23;;;21.60;39.00;;;;;;5135105;27;20502;-57
2023/08/18 01:51:37;;;;;;;11.07;10.57;;;21.60;38.50;;;;;;5134721;27;20493;-55
2023/08/18 01:54:03;;;;;;;10.57;9.97;;;21.60;38.50;;;;;;5135366;27;20616;-56
2023/08/18 01:56:28;;;;;;;10.43;9.83;;;21.60;38.40;;;;;;5135283;27;20172;-56
2023/08/18 01:58:54;;;;;;;11.27;10.67;;;21.50;38.20;;;;;;5135195;27;20513;-56
2023/08/18 02:01:19;;;;;;;10.20;9.60;;;21.50;38.70;;;;;;5135248;27;20188;-56
2023/08/18 02:03:45;;;;;;;11.37;10.60;;;21.50;38.00;;;;;;5135290;27;20207;-59
2023/08/18 02:06:10;;;;;;;11.37;10.27;;;21.50;38.20;;;;;;5135358;27;20620;-59
2023/08/18 02:08:36;;;;;;;11.63;11.00;;;21.50;38.00;;;;;;5153474;27;20255;-57
2023/08/18 02:11:03;;;;;;;11.60;10.80;;;21.50;38.40;;;;;;5135388;27;20276;-57
2023/08/18 02:13:30;;;;;;;10.90;10.30;;;21.50;38.10;;;;;;5134980;27;20571;-57
2023/08/18 02:15:56;;;;;;;10.47;9.87;;;21.50;37.90;;;;;;5135161;27;20409;-57
2023/08/18 02:18:21;;;;;;;11.77;10.97;;;21.50;38.00;;;;;;5134973;27;20406;-56
2023/08/18 02:20:53;;;;;;;10.57;10.00;;;21.50;37.60;;;;;;5135089;27;20532;-56
2023/08/18 02:23:18;;;;;;;10.77;10.27;;;21.50;37.30;;;;;;5135237;27;20187;-55
2023/08/18 02:25:44;;;;;;;10.07;9.47;;;21.50;37.10;;;;;;5135024;27;20410;-55
2023/08/18 02:28:10;;;;;;;10.37;9.77;;;21.40;37.20;;;;;;5134936;27;20188;-56
2023/08/18 02:30:35;;;;;;;10.43;9.90;;;21.40;36.80;;;;;;5134878;27;20285;-56
2023/08/18 02:33:01;;;;;;;9.90;9.33;;;21.40;37.10;;;;;;5135033;27;20208;-56
2023/08/18 02:35:26;;;;;;;10.47;9.90;;;21.40;36.60;;;;;;5134793;27;20169;-59
2023/08/18 02:37:52;;;;;;;10.53;9.83;;;21.40;36.40;;;;;;5134878;27;20581;-59
2023/08/18 02:40:18;;;;;;;10.77;10.07;;;21.40;36.00;;;;;;5134794;27;20168;-59
2023/08/18 02:42:43;;;;;;;10.10;9.50;;;21.40;36.00;;;;;;5135043;27;20192;-59
2023/08/18 02:45:09;;;;;;;10.87;10.17;;;21.30;35.40;;;;;;5134878;27;20180;-59
2023/08/18 02:47:38;;;;;;;10.67;10.07;;;21.30;35.90;;;;;;5134849;27;20176;-59
2023/08/18 02:50:04;;;;;;;10.50;9.90;;;21.30;35.90;;;;;;5134565;27;20195;-60
2023/08/18 02:52:30;;;;;;;11.10;10.43;;;21.30;35.60;;;;;;5134807;27;20457;-56
2023/08/18 02:54:55;;;;;;;9.90;9.30;;;21.20;35.30;;;;;;5134750;27;20506;-57
2023/08/18 02:57:21;;;;;;;10.50;9.80;;;21.10;35.40;;;;;;5134803;27;20510;-55
2023/08/18 02:59:46;;;;;;;10.20;9.40;;;21.10;35.40;;;;;;5134500;27;20176;-56
2023/08/18 03:02:12;;;;;;;10.67;10.00;;;21.10;35.00;;;;;;5137050;27;20181;-57
2023/08/18 03:04:37;;;;;;;10.30;9.60;;;21.00;34.70;;;;;;5138544;27;20181;-56
2023/08/18 03:07:03;;;;;;;9.90;9.30;;;21.00;35.70;;;;;;5138762;27;20172;-56
2023/08/18 03:09:29;;;;;;;10.60;9.90;;;20.90;35.30;;;;;;5138461;27;20180;-56
2023/08/18 03:11:54;;;;;;;10.10;9.60;;;20.90;35.40;;;;;;5139006;27;20539;-56
2023/08/18 03:14:20;;;;;;;10.67;10.00;;;20.80;35.60;;;;;;5138843;27;20173;-56
2023/08/18 03:16:45;;;;;;;11.27;10.50;;;20.80;35.80;;;;;;5138566;27;20168;-55
2023/08/18 03:19:11;;;;;;;11.47;10.20;;;20.80;35.80;;;;;;5138339;27;20172;-58
2023/08/18 03:21:37;;;;;;;11.03;10.40;;;20.70;36.40;;;;;;5138362;27;20620;-58
2023/08/18 03:24:04;;;;;;;10.30;9.80;;;20.80;36.10;;;;;;5138458;27;20172;-58
2023/08/18 03:26:30;;;;;;;11.87;10.73;;;20.90;36.20;;;;;;5138340;27;20573;-59
2023/08/18 03:28:57;;;;;;;10.63;10.00;;;20.90;36.30;;;;;;5138026;27;20494;-58
2023/08/18 03:31:22;;;;;;;10.30;9.70;;;21.00;36.00;;;;;;5138064;27;20208;-59
2023/08/18 03:33:48;;;;;;;12.37;11.40;;;21.10;35.90;;;;;;5138071;27;20948;-59
2023/08/18 03:36:13;;;;;;;11.73;10.93;;;21.10;35.70;;;;;;5138097;27;20321;-58
2023/08/18 03:38:39;;;;;;;10.93;10.33;;;21.20;35.90;;;;;;5137782;27;20256;-58
2023/08/18 03:41:06;;;;;;;11.00;10.40;;;21.30;35.90;;;;;;5138003;27;20223;-58
2023/08/18 03:43:32;;;;;;;12.47;11.60;;;21.30;35.50;;;;;;5156411;27;20173;-58
2023/08/18 03:46:00;;;;;;;11.83;11.03;;;21.40;35.90;;;;;;5137828;27;20778;-58
2023/08/18 03:48:25;;;;;;;12.00;11.20;;;21.40;35.90;;;;;;5137591;27;20901;-58
2023/08/18 03:50:51;;;;;;;11.20;10.63;;;21.50;35.60;;;;;;5137617;27;20497;-59
2023/08/18 03:53:17;;;;;;;11.70;10.97;;;21.50;35.40;;;;;;5137555;27;20541;-56
2023/08/18 03:55:43;;;;;;;11.40;10.70;;;21.60;35.10;;;;;;5137639;27;20181;-56
2023/08/18 03:58:08;;;;;;;10.67;10.10;;;21.60;35.10;;;;;;5137062;27;20173;-57
2023/08/18 04:00:34;;;;;;;11.50;10.90;;;21.60;35.00;;;;;;5137560;27;20463;-56
2023/08/18 04:03:00;;;;;;;11.10;10.40;;;21.60;34.90;;;;;;5137957;27;20172;-58
2023/08/18 04:05:25;;;;;;;12.40;11.67;;;21.70;34.90;;;;;;5137749;27;20228;-59
2023/08/18 04:07:51;;;;;;;11.40;10.70;;;21.70;34.80;;;;;;5137764;27;20535;-58
2023/08/18 04:10:17;;;;;;;11.23;10.63;;;21.70;34.40;;;;;;5137906;27;20172;-56
2023/08/18 04:12:43;;;;;;;11.40;10.80;;;21.60;34.50;;;;;;5136831;27;20469;-57
2023/08/18 04:15:09;;;;;;;12.00;11.30;;;21.60;34.60;;;;;;5137471;27;20256;-57
2023/08/18 04:17:34;;;;;;;12.80;11.60;;;21.60;34.40;;;;;;5137331;27;20169;-56
2023/08/18 04:20:00;;;;;;;12.17;11.40;;;21.70;34.60;;;;;;5137340;27;20406;-56
2023/08/18 04:22:25;;;;;;;12.50;11.50;;;21.70;34.20;;;;;;5137305;27;20208;-56
2023/08/18 04:24:51;;;;;;;12.10;11.30;;;21.70;34.30;;;;;;5137376;27;20241;-59
2023/08/18 04:27:17;;;;;;;11.40;10.70;;;21.70;34.80;;;;;;5137182;27;20181;-58
2023/08/18 04:29:42;;;;;;;10.90;10.30;;;21.70;34.30;;;;;;5136968;27;20187;-59
2023/08/18 04:32:08;;;;;;;12.50;11.70;;;21.70;34.10;;;;;;5137198;27;20204;-57
2023/08/18 04:34:33;;;;;;;10.90;10.40;;;21.70;33.90;;;;;;5137274;27;20180;-57
2023/08/18 04:36:59;;;;;;;10.97;10.47;;;21.70;33.80;;;;;;5137143;27;20268;-57
2023/08/18 04:39:25;;;;;;;11.27;10.57;;;21.70;33.80;;;;;;5136917;27;20706;-59
2023/08/18 04:41:50;;;;;;;11.47;10.87;;;21.70;33.80;;;;;;5137122;27;20168;-58
2023/08/18 04:44:16;;;;;;;11.83;10.93;;;21.70;33.80;;;;;;5137043;27;20168;-57
2023/08/18 04:46:41;;;;;;;11.90;11.10;;;21.70;34.00;;;;;;5155777;27;20684;-58
2023/08/18 04:49:07;;;;;;;11.17;10.37;;;21.70;34.00;;;;;;5136742;27;20179;-58
2023/08/18 04:51:33;;;;;;;10.23;9.53;;;21.70;34.00;;;;;;5136831;27;20169;-58
2023/08/18 04:53:58;;;;;;;11.20;10.60;;;21.70;34.00;;;;;;5136640;27;20204;-58
2023/08/18 04:56:24;;;;;;;11.50;10.80;;;21.70;33.70;;;;;;5136491;27;20180;-58
2023/08/18 04:58:49;;;;;;;11.33;10.80;;;21.70;33.80;;;;;;5136560;27;20177;-58
2023/08/18 05:01:15;;;;;;;11.43;10.73;;;21.70;33.80;;;;;;5136428;27;20529;-58
2023/08/18 05:03:40;;;;;;;12.97;12.07;;;21.70;32.90;;;;;;5136628;27;20196;-58
2023/08/18 05:06:12;;;;;;;12.10;11.30;;;21.60;33.30;;;;;;5136817;27;20225;-58
2023/08/18 05:08:40;;;;;;;12.90;12.20;;;21.40;32.80;;;;;;5136323;27;20172;-58
2023/08/18 05:11:08;;;;;;;12.73;11.83;;;21.30;33.70;;;;;;5136661;27;20410;-58
2023/08/18 05:13:36;;;;;;;11.53;10.83;;;21.30;33.60;;;;;;5136471;27;20453;-54
2023/08/18 05:16:03;;;;;;;12.00;11.13;;;21.20;33.20;;;;;;5136532;27;20405;-55
2023/08/18 05:18:29;;;;;;;12.43;11.80;;;21.20;33.50;;;;;;5136114;27;20455;-55
2023/08/18 05:20:58;;;;;;;12.50;11.90;;;21.10;33.30;;;;;;5136405;27;20775;-57
2023/08/18 05:23:25;;;;;;;12.57;11.90;;;21.00;33.70;;;;;;5136240;27;20771;-56
2023/08/18 05:25:54;;;;;;;13.00;12.13;;;21.00;33.90;;;;;;5136100;27;20457;-59
2023/08/18 05:28:25;;;;;;;10.97;10.37;;;21.00;33.80;;;;;;5135360;27;20417;-59
2023/08/18 05:30:52;;;;;;;12.00;11.40;;;21.00;34.00;;;;;;5136097;27;20414;-58
2023/08/18 05:33:18;;;;;;;12.10;11.20;;;21.10;34.90;;;;;;5135946;27;20465;-58
2023/08/18 05:35:43;;;;;;;12.60;11.90;;;21.10;35.10;;;;;;5135753;27;20398;-59
2023/08/18 05:38:12;;;;;;;12.50;11.90;;;21.10;35.30;;;;;;5135517;27;20181;-59
2023/08/18 05:40:40;;;;;;;12.63;11.87;;;21.20;35.30;;;;;;5135425;27;20175;-58
2023/08/18 05:43:06;;;;;;;12.30;11.33;;;21.30;35.30;;;;;;5135719;27;20417;-58
2023/08/18 05:45:34;;;;;;;13.33;12.47;;;21.40;35.30;;;;;;5135745;27;20410;-58
2023/08/18 05:48:00;;;;;;;12.13;11.37;;;21.50;35.10;;;;;;5129828;27;20195;-58
2023/08/18 05:50:27;;;;;;;11.83;11.00;;;21.50;34.30;;;;;;5134823;27;20427;-58
2023/08/18 05:52:53;;;;;;;14.17;13.33;;;21.50;33.50;;;;;;5134284;27;20635;-58
2023/08/18 05:55:19;;;;;;;12.63;11.90;;;21.50;34.20;;;;;;5118323;27;20473;-58
2023/08/18 05:57:45;;;;;;;13.53;12.50;;;21.50;34.70;;;;;;5135307;27;20949;-58
2023/08/18 06:00:13;;;;;;;12.57;11.87;;;21.60;34.10;;;;;;5135219;27;20214;-58
2023/08/18 06:02:39;;;;;;;12.10;11.53;;;21.50;33.10;;;;;;5135535;27;20180;-59
2023/08/18 06:05:05;;;;;;;11.80;11.20;;;21.50;32.80;;;;;;5135104;27;20418;-60
2023/08/18 06:07:30;;;;;;;12.77;11.63;;;21.50;33.40;;;;;;5135070;27;20203;-60
2023/08/18 06:09:56;;;;;;;11.50;10.80;;;21.60;33.80;;;;;;5134967;27;20546;-60
2023/08/18 06:12:21;;;;;;;12.43;11.73;;;21.60;34.00;;;;;;5153645;27;20200;-60
2023/08/18 06:14:47;;;;;;;12.17;11.37;;;21.70;33.70;;;;;;5135031;27;20184;-59
2023/08/18 06:17:13;;;;;;;12.10;11.50;;;21.70;33.80;;;;;;5123729;28;20185;-60
2023/08/18 06:19:38;;;;;;;12.80;11.90;;;21.70;33.50;;;;;;5114162;27;20184;-59
2023/08/18 06:22:04;;;;;;;12.57;11.77;;;21.70;33.10;;;;;;5136036;27;20173;-59
2023/08/18 06:24:30;;;;;;;12.10;11.40;;;21.70;33.00;;;;;;5135043;27;20172;-59
2023/08/18 06:26:55;;;;;;;11.60;11.00;;;21.70;34.10;;;;;;5134878;27;20168;-60
2023/08/18 06:29:21;;;;;;;12.20;11.50;;;21.70;33.90;;;;;;5153140;27;20168;-60
2023/08/18 06:31:47;;;;;;;11.67;11.17;;;21.80;34.10;;;;;;5134425;27;20176;-59
2023/08/18 06:34:12;;;;;;;12.50;11.60;;;21.80;34.20;;;;;;5134725;27;20620;-59
2023/08/18 06:36:38;;;;;;;12.27;11.47;;;21.90;34.20;;;;;;5129636;27;20189;-60
2023/08/18 06:39:03;;;;;;;11.50;10.80;;;22.00;34.00;;;;;;5137130;27;20181;-57
2023/08/18 06:41:29;;;;;;;12.50;11.80;;;22.00;34.10;;;;;;5129204;27;20614;-57
2023/08/18 06:43:55;;;;;;;12.33;11.63;;;22.00;34.00;;;;;;5118206;27;20173;-57
2023/08/18 06:46:21;;;;;;;12.43;11.70;;;22.10;34.30;;;;;;5118320;27;20181;-56
2023/08/18 06:48:46;;;;;;;13.03;12.30;;;22.10;34.00;;;;;;5118418;27;20430;-57
2023/08/18 06:51:12;;;;;;;12.60;11.80;;;22.10;33.30;;;;;;5118567;27;20205;-57
2023/08/18 06:53:38;;;;;;;12.37;11.63;;;22.10;33.70;;;;;;5135498;27;20208;-57
2023/08/18 06:56:03;;;;;;;12.97;12.07;;;22.20;34.10;;;;;;5139056;27;20168;-59
2023/08/18 06:58:30;;;;;;;12.30;11.40;;;22.20;33.10;;;;;;5138750;27;20181;-54
2023/08/18 07:00:56;;;;;;;11.80;11.10;;;22.20;32.90;;;;;;5138952;27;20177;-54
2023/08/18 07:03:21;;;;;;;13.17;12.43;;;22.20;32.60;;;;;;5138817;27;20421;-58
2023/08/18 07:05:47;;;;;;;12.60;11.70;;;22.30;32.40;;;;;;5139050;27;20183;-58
2023/08/18 07:08:13;;;;;;;12.10;11.30;;;22.30;31.90;;;;;;5138641;27;20620;-58
2023/08/18 07:10:38;;;;;;;13.13;12.23;;;22.30;32.00;;;;;;5138806;27;20550;-58
2023/08/18 07:13:04;;;;;;;12.03;11.40;;;22.30;31.90;;;;;;5137488;27;20215;-58
2023/08/18 07:15:29;;;;;;;12.40;11.70;;;22.40;32.00;;;;;;5136948;27;20604;-58
2023/08/18 07:17:55;;;;;;;11.73;10.93;;;22.40;32.00;;;;;;5139787;27;20575;-58
2023/08/18 07:20:21;;;;;;;12.13;11.27;;;22.40;31.40;;;;;;5135959;27;20528;-58
2023/08/18 07:22:47;;;;;;;12.47;11.70;;;22.50;31.90;;;;;;5136058;27;20691;-58
2023/08/18 07:25:12;;;;;;;11.03;10.03;;;22.50;31.10;;;;;;5138446;27;20590;-58
2023/08/18 07:27:38;;;;;;;11.30;10.70;;;22.50;30.70;;;;;;5138465;27;20184;-58
2023/08/18 07:30:04;;;;;;;11.53;10.93;;;22.60;30.70;;;;;;5138432;27;20211;-59
2023/08/18 07:32:30;;;;;;;11.03;10.53;;;22.70;30.80;;;;;;5136489;27;20213;-58
2023/08/18 07:34:56;;;;;;;12.37;11.77;;;22.70;30.70;;;;;;5137255;27;20846;-59
2023/08/18 07:37:21;;;;;;;13.20;12.40;;;22.80;31.10;;;;;;5120109;27;20177;-59
2023/08/18 07:39:47;;;;;;;11.77;11.27;;;22.80;31.30;;;;;;5137136;27;20252;-58
2023/08/18 07:42:13;;;;;;;11.80;11.10;;;22.90;30.60;;;;;;5137361;27;20554;-58
2023/08/18 07:44:38;;;;;;;12.87;11.90;;;22.90;29.30;;;;;;5136804;27;20183;-59
2023/08/18 07:47:04;;;;;;;12.67;11.90;;;23.00;30.00;;;;;;5126445;27;20189;-58
2023/08/18 07:49:29;;;;;;;11.60;10.80;;;23.00;29.70;;;;;;5115050;27;20226;-59
2023/08/18 07:51:55;;;;;;;11.97;11.37;;;23.10;29.60;;;;;;5116399;27;20648;-59
2023/08/18 07:54:23;;;;;;;11.50;10.60;;;23.10;29.30;;;;;;5132087;27;20289;-59
2023/08/18 07:56:48;;;;;;;12.47;11.50;;;23.20;28.20;;;;;;5136751;27;20176;-59
2023/08/18 07:59:14;;;;;;;12.77;12.10;;;23.20;28.00;;;;;;5136900;27;20436;-58
2023/08/18 08:01:40;;;;;;;12.23;11.63;;;23.30;28.10;;;;;;5136530;27;20302;-59
2023/08/18 08:04:06;;;;;;;12.40;11.87;;;23.40;26.90;;;;;;5136878;27;20180;-59
2023/08/18 08:06:31;;;;;;;12.60;11.90;;;23.50;25.20;;;;;;5136104;27;20648;-59
2023/08/18 08:08:58;;;;;;;11.90;11.40;;;23.60;26.40;;;;;;5136268;27;20183;-58
2023/08/18 08:11:23;;;;;;;12.00;11.40;;;23.60;27.20;;;;;;5137642;27;20187;-56
2023/08/18 08:13:49;;;;;;;11.37;10.80;;;23.60;24.80;;;;;;5136745;27;20457;-59
2023/08/18 08:16:15;;;;;;;11.50;10.90;;;23.80;24.30;;;;;;5136495;27;20432;-55
2023/08/18 08:18:41;;;;;;;11.03;10.43;;;23.90;24.70;;;;;;5119157;27;20181;-55
2023/08/18 08:21:07;;;;;;;10.27;9.80;;;24.00;23.20;;;;;;5155506;27;20173;-60
2023/08/18 08:23:32;;;;;;;10.70;10.20;;;24.10;22.30;;;;;;5136272;27;20204;-57
2023/08/18 08:25:58;;;;;;;10.83;10.43;;;24.20;22.30;;;;;;5154938;27;20478;-56
2023/08/18 08:28:24;;;;;;;11.00;10.30;;;24.30;22.50;;;;;;5154698;27;20192;-55
2023/08/18 08:30:54;;;;;;;11.07;10.50;;;24.30;22.00;;;;;;5119347;27;20410;-54
2023/08/18 08:33:21;;;;;;;11.23;10.60;;;24.50;21.60;;;;;;5136166;27;20544;-55
2023/08/18 08:35:47;;;;;;;11.20;10.70;;;24.50;22.10;;;;;;5136037;27;20406;-56
2023/08/18 08:38:12;;;;;;;11.10;10.60;;;24.50;21.80;;;;;;5135660;27;20788;-56
2023/08/18 08:40:40;;;;;;;11.03;10.40;;;24.50;21.50;;;;;;5154345;27;20203;-55
2023/08/18 08:43:06;;;;;;;10.70;10.30;;;24.60;20.50;;;;;;5154347;27;20636;-56
2023/08/18 08:45:33;;;;;;;9.83;9.33;;;24.60;20.60;;;;;;5135828;27;20457;-55
2023/08/18 08:48:06;;;;;;;9.63;9.13;;;24.60;21.00;;;;;;5135411;27;20180;-56
2023/08/18 08:50:34;;;;;;;10.63;9.90;;;24.60;21.20;;;;;;5138571;27;20445;-59
2023/08/18 08:53:01;;;;;;;10.37;9.87;;;24.70;22.20;;;;;;5138132;27;20965;-59
2023/08/18 08:55:32;;;;;;;10.80;10.20;;;24.70;22.30;;;;;;5136353;27;20946;-59
2023/08/18 08:57:59;;;;;;;8.80;8.50;;;24.80;20.20;;;;;;5154334;27;20431;-59
2023/08/18 09:00:25;;;;;;;9.53;9.13;;;25.00;18.40;;;;;;5135454;27;20451;-59
2023/08/18 09:02:51;;;;;;;9.97;9.50;;;25.10;19.10;;;;;;5136363;27;20510;-59
2023/08/18 09:05:17;;;;;;;9.27;8.83;;;25.20;18.40;;;;;;5154324;27;20870;-59
2023/08/18 09:07:43;;;;;;;10.50;10.10;;;25.30;18.30;;;;;;5136196;27;20184;-59
2023/08/18 09:10:09;;;;;;;9.83;9.40;;;25.50;19.90;;;;;;5154895;27;20628;-56
2023/08/18 09:12:36;;;;;;;10.90;10.30;;;25.50;18.30;;;;;;5154267;27;20465;-55
2023/08/18 09:15:01;;;;;;;10.00;9.60;;;25.70;17.60;;;;;;5135755;27;20901;-53
2023/08/18 09:17:27;;;;;;;10.93;10.40;;;26.00;17.00;;;;;;5154125;27;20420;-57
2023/08/18 09:19:58;;;;;;;9.40;9.10;;;26.00;16.70;;;;;;5153482;27;20236;-55
2023/08/18 09:22:24;;;;;;;11.03;10.57;;;26.20;15.00;;;;;;5135538;27;20340;-57
2023/08/18 09:24:51;;;;;;;9.90;9.50;;;26.30;15.50;;;;;;5153918;27;20413;-59
2023/08/18 09:27:17;;;;;;;9.13;8.70;;;26.50;14.70;;;;;;5134587;27;20428;-59
2023/08/18 09:29:43;;;;;;;10.00;9.60;;;26.70;14.50;;;;;;5120648;27;20423;-58
2023/08/18 09:32:09;;;;;;;9.87;9.37;;;26.90;14.00;;;;;;5114293;27;20415;-58
2023/08/18 09:34:38;;;;;;;8.90;8.60;;;27.10;14.50;;;;;;5114407;27;20181;-59
2023/08/18 09:37:07;;;;;;;8.43;8.13;;;27.10;13.90;;;;;;5114056;27;20829;-59
2023/08/18 09:39:32;;;;;;;9.63;9.13;;;27.20;14.30;;;;;;5124075;27;20783;-59
2023/08/18 09:41:59;;;;;;;9.10;8.60;;;27.30;14.50;;;;;;5134874;27;20416;-60
2023/08/18 09:44:25;;;;;;;9.60;9.10;;;27.40;13.70;;;;;;5134636;27;20652;-59
2023/08/18 09:46:53;;;;;;;10.20;9.60;;;27.80;13.20;;;;;;5125696;27;20432;-59
2023/08/18 09:49:20;;;;;;;9.60;9.20;;;27.90;12.90;;;;;;5113866;27;20204;-59
2023/08/18 09:51:47;;;;;;;11.17;10.57;;;28.10;12.40;;;;;;5114109;27;20415;-59
2023/08/18 09:54:17;;;;;;;9.60;9.20;;;28.30;12.40;;;;;;5119989;27;20560;-59
2023/08/18 09:56:45;;;;;;;9.90;9.40;;;28.40;12.10;;;;;;5134411;27;20486;-59
2023/08/18 09:59:17;;;;;;;10.37;9.90;;;28.50;11.30;;;;;;5134496;27;20719;-58
2023/08/18 10:01:46;;;;;;;9.97;9.57;;;28.50;12.70;;;;;;5134565;27;20414;-59
2023/08/18 10:04:12;;;;;;;9.80;9.40;;;28.60;11.30;;;;;;5133269;27;20422;-60
2023/08/18 10:06:39;;;;;;;10.57;10.17;;;28.80;11.00;;;;;;5113688;28;20962;-60
2023/08/18 10:09:05;;;;;;;10.20;9.50;;;28.90;10.80;;;;;;5117905;27;20429;-59
2023/08/18 10:11:34;;;;;;;10.60;10.20;;;29.10;10.50;;;;;;5133793;27;20421;-59
2023/08/18 10:14:00;;;;;;;11.40;9.97;;;29.10;10.20;;;;;;5134507;27;20458;-60
2023/08/18 10:16:27;;;;;;;8.90;8.50;;;29.20;9.90;;;;;;5134047;27;20433;-59
2023/08/18 10:18:56;;;;;;;10.20;9.70;;;29.30;9.80;;;;;;5134127;27;20187;-59
2023/08/18 10:21:28;;;;;;;9.90;9.40;;;29.30;9.90;;;;;;5134249;27;20414;-59
2023/08/18 10:23:54;;;;;;;9.77;9.27;;;29.40;9.80;;;;;;5134500;27;20414;-56
2023/08/18 10:26:23;;;;;;;9.73;9.33;;;29.50;9.70;;;;;;5134066;27;20416;-55
2023/08/18 10:28:49;;;;;;;9.90;9.40;;;29.50;9.90;;;;;;5122376;28;20318;-55
2023/08/18 10:31:16;;;;;;;8.97;8.57;;;29.60;10.00;;;;;;5113625;28;20962;-55
2023/08/18 10:33:43;;;;;;;9.57;9.17;;;29.60;9.50;;;;;;5120793;27;20216;-56
2023/08/18 10:36:12;;;;;;;9.73;9.20;;;29.60;10.00;;;;;;5118719;27;20419;-57
2023/08/18 10:38:41;;;;;;;8.93;8.37;;;29.60;9.40;;;;;;5131941;27;20995;-56
2023/08/18 10:41:08;;;;;;;9.50;9.00;;;29.60;8.80;;;;;;5132472;27;20416;-56
2023/08/18 10:43:52;;;;;;;9.47;9.00;;;29.60;8.90;;;;;;5131866;27;20652;-55
2023/08/18 10:46:17;;;;;;;8.90;8.57;;;29.60;9.60;;;;;;5130591;27;20411;-54
2023/08/18 10:48:43;;;;;;;9.67;9.00;;;29.70;9.30;;;;;;5133497;27;20774;-56
2023/08/18 10:51:09;;;;;;;9.23;8.83;;;29.70;8.70;;;;;;5152526;27;20192;-56
2023/08/18 10:53:37;;;;;;;9.67;9.10;;;29.70;8.90;;;;;;5133773;27;20204;-53
2023/08/18 10:56:04;;;;;;;9.10;8.60;;;29.70;9.60;;;;;;5133595;27;20257;-56
2023/08/18 10:58:30;;;;;;;8.63;8.33;;;29.70;10.00;;;;;;5132958;27;20425;-55
2023/08/18 11:00:56;;;;;;;8.57;8.17;;;29.70;9.80;;;;;;5133793;27;20932;-56
2023/08/18 11:03:22;;;;;;;8.10;7.70;;;29.60;8.40;;;;;;5133711;27;20421;-56
2023/08/18 11:05:47;;;;;;;9.43;8.57;;;29.60;7.90;;;;;;5132921;27;20212;-52
2023/08/18 11:08:13;;;;;;;7.90;7.53;;;29.70;8.40;;;;;;5133375;27;20210;-56
2023/08/18 11:10:42;;;;;;;9.00;8.30;;;29.80;7.30;;;;;;5133512;27;20292;-55
2023/08/18 11:13:21;;;;;;;9.10;8.30;;;29.90;6.30;;;;;;5133579;27;20548;-54
2023/08/18 11:15:49;;;;;;;9.07;8.67;;;29.90;6.20;;;;;;5133788;27;20496;-56
2023/08/18 11:18:15;;;;;;;8.47;8.17;;;29.80;7.00;;;;;;5132944;27;20418;-56
2023/08/18 11:20:41;;;;;;;8.17;7.77;;;29.80;6.60;;;;;;5133721;27;20886;-60
2023/08/18 11:23:08;;;;;;;8.50;8.20;;;29.80;7.30;;;;;;5135428;27;20176;-59
2023/08/18 11:25:34;;;;;;;8.60;8.00;;;29.80;7.60;;;;;;5137233;27;20500;-60
2023/08/18 11:28:00;;;;;;;9.50;9.07;;;29.70;8.20;;;;;;5137208;27;20516;-60
2023/08/18 11:30:25;;;;;;;8.70;8.30;;;29.60;8.50;;;;;;5137171;27;20181;-60
2023/08/18 11:32:53;;;;;;;8.80;8.40;;;29.50;6.20;;;;;;5137205;27;20204;-60
2023/08/18 11:35:19;;;;;;;9.07;8.20;;;29.70;5.40;;;;;;5137329;27;20462;-55
2023/08/18 11:37:46;;;;;;;8.47;8.17;;;29.70;5.40;;;;;;5136891;27;21233;-56
2023/08/18 11:40:14;;;;;;;8.90;8.47;;;29.60;6.40;;;;;;5137242;27;20216;-60
2023/08/18 11:42:44;;;;;;;7.93;7.53;;;29.80;6.20;;;;;;5137149;27;20515;-60
2023/08/18 11:45:18;;;;;;;8.90;8.40;;;29.90;5.70;;;;;;5137066;27;20473;-59
2023/08/18 11:48:00;;;;;;;8.70;8.30;;;29.90;6.60;;;;;;5136959;27;20430;-60
2023/08/18 11:50:36;;;;;;;8.83;8.53;;;29.90;6.50;;;;;;5119713;27;20929;-60
2023/08/18 11:53:07;;;;;;;8.10;7.77;;;29.90;5.90;;;;;;5137036;27;20497;-59
2023/08/18 11:55:40;;;;;;;8.47;8.10;;;29.80;6.00;;;;;;5136509;27;20422;-59
2023/08/18 11:58:10;;;;;;;8.43;7.83;;;29.80;6.60;;;;;;5136874;27;20805;-60
2023/08/18 12:00:38;;;;;;;8.97;8.47;;;29.70;7.10;;;;;;5136899;27;20424;-59
2023/08/18 12:03:05;;;;;;;8.10;7.60;;;29.70;8.00;;;;;;5136962;27;20418;-60
2023/08/18 12:05:31;;;;;;;8.60;8.13;;;29.70;8.00;;;;;;5133049;27;20777;-56
2023/08/18 12:08:00;;;;;;;8.67;8.27;;;29.70;7.60;;;;;;5116002;27;20827;-56
2023/08/18 12:10:25;;;;;;;8.03;7.73;;;29.90;7.20;;;;;;5116232;27;20423;-56
2023/08/18 12:12:51;;;;;;;8.90;8.47;;;29.90;6.80;;;;;;5135847;27;20462;-56
2023/08/18 12:15:17;;;;;;;8.30;8.00;;;29.80;6.80;;;;;;5136880;27;20176;-56
2023/08/18 12:17:42;;;;;;;8.30;7.90;;;30.00;6.20;;;;;;5136324;27;20220;-56
2023/08/18 12:20:08;;;;;;;8.63;8.03;;;30.20;5.70;;;;;;5136594;27;20173;-56
2023/08/18 12:22:34;;;;;;;8.67;8.07;;;30.20;5.90;;;;;;5136397;27;20181;-56
2023/08/18 12:25:00;;;;;;;8.03;7.63;;;30.30;5.70;;;;;;5136623;27;20414;-56
2023/08/18 12:27:29;;;;;;;8.40;7.87;;;30.40;5.30;;;;;;5128467;27;20189;-60
2023/08/18 12:29:55;;;;;;;8.90;8.40;;;30.50;5.10;;;;;;5136493;27;20318;-60
2023/08/18 12:32:21;;;;;;;8.30;7.90;;;30.50;5.00;;;;;;5136374;27;20492;-60